sensor_id;sensor_type;location;lat;lon;timestamp;pressure;altitude;pressure_sealevel;temperature;humidity
76052;BME280;64751;48.708;9.710;2024-02-28T00:00:27;97506.66;;;7.82;88.74
76052;BME280;64751;48.708;9.710;2024-02-28T00:03:00;97507.41;;;7.82;89.36
76052;BME280;64751;48.708;9.710;2024-02-28T00:05:27;97509.81;;;7.84;90.00
76052;BME280;64751;48.708;9.710;2024-02-28T00:08:00;97515.88;;;7.84;89.17
76052;BME280;64751;48.708;9.710;2024-02-28T00:10:28;97512.69;;;7.82;89.19
76052;BME280;64751;48.708;9.710;2024-02-28T00:13:01;97511.63;;;7.83;89.49
76052;BME280;64751;48.708;9.710;2024-02-28T00:15:33;97516.09;;;7.83;89.33
76052;BME280;64751;48.708;9.710;2024-02-28T00:18:01;97515.06;;;7.84;89.31
76052;BME280;64751;48.708;9.710;2024-02-28T00:20:27;97520.03;;;7.80;89.37
76052;BME280;64751;48.708;9.710;2024-02-28T00:22:55;97519.50;;;7.78;89.12
76052;BME280;64751;48.708;9.710;2024-02-28T00:25:29;97523.19;;;7.77;89.42
76052;BME280;64751;48.708;9.710;2024-02-28T00:28:01;97519.78;;;7.77;89.36
76052;BME280;64751;48.708;9.710;2024-02-28T00:30:34;97523.97;;;7.73;89.78
76052;BME280;64751;48.708;9.710;2024-02-28T00:33:07;97515.03;;;7.69;89.57
76052;BME280;64751;48.708;9.710;2024-02-28T00:35:40;97520.00;;;7.65;89.34
76052;BME280;64751;48.708;9.710;2024-02-28T00:38:07;97522.59;;;7.60;88.29
76052;BME280;64751;48.708;9.710;2024-02-28T00:40:41;97522.06;;;7.58;90.04
76052;BME280;64751;48.708;9.710;2024-02-28T00:43:13;97520.75;;;7.56;90.05
76052;BME280;64751;48.708;9.710;2024-02-28T00:45:46;97516.00;;;7.48;89.16
76052;BME280;64751;48.708;9.710;2024-02-28T00:48:18;97516.47;;;7.35;88.98
76052;BME280;64751;48.708;9.710;2024-02-28T00:50:45;97520.38;;;7.32;89.45
76052;BME280;64751;48.708;9.710;2024-02-28T00:53:13;97518.75;;;7.21;88.14
76052;BME280;64751;48.708;9.710;2024-02-28T00:55:46;97522.16;;;7.16;89.16
76052;BME280;64751;48.708;9.710;2024-02-28T00:58:19;97517.66;;;7.12;88.31
76052;BME280;64751;48.708;9.710;2024-02-28T01:00:47;97522.03;;;6.96;88.15
76052;BME280;64751;48.708;9.710;2024-02-28T01:03:19;97528.00;;;6.87;88.58
76052;BME280;64751;48.708;9.710;2024-02-28T01:05:52;97525.31;;;6.77;88.10
76052;BME280;64751;48.708;9.710;2024-02-28T01:08:19;97526.84;;;6.73;88.05
76052;BME280;64751;48.708;9.710;2024-02-28T01:10:53;97524.44;;;6.66;88.01
76052;BME280;64751;48.708;9.710;2024-02-28T01:13:25;97517.53;;;6.55;85.75
76052;BME280;64751;48.708;9.710;2024-02-28T01:15:58;97521.41;;;6.47;87.55
76052;BME280;64751;48.708;9.710;2024-02-28T01:18:25;97522.91;;;6.38;86.37
76052;BME280;64751;48.708;9.710;2024-02-28T01:21:01;97519.16;;;6.29;86.46
76052;BME280;64751;48.708;9.710;2024-02-28T01:23:34;97517.69;;;6.12;85.67
76052;BME280;64751;48.708;9.710;2024-02-28T01:26:08;97515.56;;;6.09;86.85
76052;BME280;64751;48.708;9.710;2024-02-28T01:28:40;97516.78;;;6.01;88.20
76052;BME280;64751;48.708;9.710;2024-02-28T01:31:09;97519.59;;;5.95;87.08
76052;BME280;64751;48.708;9.710;2024-02-28T01:33:41;97503.06;;;5.89;87.69
76052;BME280;64751;48.708;9.710;2024-02-28T01:36:08;97525.03;;;5.88;87.17
76052;BME280;64751;48.708;9.710;2024-02-28T01:38:41;97528.16;;;5.85;86.97
76052;BME280;64751;48.708;9.710;2024-02-28T01:41:10;97534.50;;;5.89;87.15
76052;BME280;64751;48.708;9.710;2024-02-28T01:43:38;97531.44;;;5.75;85.94
76052;BME280;64751;48.708;9.710;2024-02-28T01:46:17;97534.47;;;5.67;85.98
76052;BME280;64751;48.708;9.710;2024-02-28T01:48:47;97529.22;;;5.67;87.32
76052;BME280;64751;48.708;9.710;2024-02-28T01:51:21;97543.38;;;5.66;87.00
76052;BME280;64751;48.708;9.710;2024-02-28T01:53:54;97536.00;;;5.63;88.16
76052;BME280;64751;48.708;9.710;2024-02-28T01:56:24;97551.53;;;5.70;88.54
76052;BME280;64751;48.708;9.710;2024-02-28T01:58:57;97552.63;;;5.74;89.31
76052;BME280;64751;48.708;9.710;2024-02-28T02:01:26;97558.66;;;5.74;89.23
76052;BME280;64751;48.708;9.710;2024-02-28T02:03:59;97563.97;;;5.79;89.06
76052;BME280;64751;48.708;9.710;2024-02-28T02:06:26;97570.00;;;5.80;88.64
76052;BME280;64751;48.708;9.710;2024-02-28T02:08:54;97565.78;;;5.79;89.00
76052;BME280;64751;48.708;9.710;2024-02-28T02:11:28;97567.69;;;5.83;89.65
76052;BME280;64751;48.708;9.710;2024-02-28T02:13:56;97566.69;;;5.84;90.16
76052;BME280;64751;48.708;9.710;2024-02-28T02:16:28;97571.66;;;5.86;89.61
76052;BME280;64751;48.708;9.710;2024-02-28T02:18:56;97576.09;;;5.85;90.15
76052;BME280;64751;48.708;9.710;2024-02-28T02:21:28;97581.34;;;5.85;90.64
76052;BME280;64751;48.708;9.710;2024-02-28T02:23:58;97589.28;;;5.91;90.50
76052;BME280;64751;48.708;9.710;2024-02-28T02:26:30;97583.25;;;5.90;90.92
76052;BME280;64751;48.708;9.710;2024-02-28T02:28:58;97585.66;;;5.97;91.36
76052;BME280;64751;48.708;9.710;2024-02-28T02:31:25;97589.41;;;6.01;92.30
76052;BME280;64751;48.708;9.710;2024-02-28T02:33:58;97590.97;;;6.02;91.79
76052;BME280;64751;48.708;9.710;2024-02-28T02:36:30;97599.94;;;6.06;92.26
76052;BME280;64751;48.708;9.710;2024-02-28T02:39:04;97577.03;;;5.96;92.77
76052;BME280;64751;48.708;9.710;2024-02-28T02:41:38;97605.03;;;6.17;92.64
76052;BME280;64751;48.708;9.710;2024-02-28T02:44:11;97606.91;;;6.22;92.71
76052;BME280;64751;48.708;9.710;2024-02-28T02:46:44;97610.16;;;6.29;92.79
76052;BME280;64751;48.708;9.710;2024-02-28T02:49:16;97605.91;;;6.28;92.77
76052;BME280;64751;48.708;9.710;2024-02-28T02:51:50;97608.31;;;6.29;92.81
76052;BME280;64751;48.708;9.710;2024-02-28T02:54:18;97607.03;;;6.32;92.76
76052;BME280;64751;48.708;9.710;2024-02-28T02:56:51;97611.78;;;6.35;92.44
76052;BME280;64751;48.708;9.710;2024-02-28T02:59:23;97609.66;;;6.32;93.28
76052;BME280;64751;48.708;9.710;2024-02-28T03:01:50;97617.81;;;6.35;93.32
76052;BME280;64751;48.708;9.710;2024-02-28T03:04:23;97610.22;;;6.39;92.97
76052;BME280;64751;48.708;9.710;2024-02-28T03:06:50;97611.88;;;6.45;92.56
76052;BME280;64751;48.708;9.710;2024-02-28T03:09:19;97612.97;;;6.49;92.82
76052;BME280;64751;48.708;9.710;2024-02-28T03:11:51;97613.50;;;6.51;92.96
76052;BME280;64751;48.708;9.710;2024-02-28T03:14:18;97615.09;;;6.52;92.75
76052;BME280;64751;48.708;9.710;2024-02-28T03:16:53;97623.00;;;6.57;92.68
76052;BME280;64751;48.708;9.710;2024-02-28T03:19:20;97634.03;;;6.59;92.98
76052;BME280;64751;48.708;9.710;2024-02-28T03:21:48;97630.94;;;6.62;93.03
76052;BME280;64751;48.708;9.710;2024-02-28T03:24:21;97637.25;;;6.66;92.97
76052;BME280;64751;48.708;9.710;2024-02-28T03:26:54;97638.59;;;6.69;92.90
76052;BME280;64751;48.708;9.710;2024-02-28T03:29:26;97643.03;;;6.63;93.57
76052;BME280;64751;48.708;9.710;2024-02-28T03:31:54;97646.19;;;6.65;93.70
76052;BME280;64751;48.708;9.710;2024-02-28T03:34:26;97650.88;;;6.63;93.84
76052;BME280;64751;48.708;9.710;2024-02-28T03:36:58;97658.22;;;6.61;94.69
76052;BME280;64751;48.708;9.710;2024-02-28T03:39:32;97653.47;;;6.58;94.82
76052;BME280;64751;48.708;9.710;2024-02-28T03:42:05;97650.28;;;6.56;95.24
76052;BME280;64751;48.708;9.710;2024-02-28T03:44:37;97660.59;;;6.63;94.85
76052;BME280;64751;48.708;9.710;2024-02-28T03:47:10;97660.09;;;6.66;94.30
76052;BME280;64751;48.708;9.710;2024-02-28T03:49:42;97656.41;;;6.67;94.36
76052;BME280;64751;48.708;9.710;2024-02-28T03:52:10;97664.03;;;6.68;94.25
76052;BME280;64751;48.708;9.710;2024-02-28T03:54:44;97660.13;;;6.71;94.38
76052;BME280;64751;48.708;9.710;2024-02-28T03:57:11;97659.09;;;6.72;94.97
76052;BME280;64751;48.708;9.710;2024-02-28T03:59:40;97672.50;;;6.75;95.51
76052;BME280;64751;48.708;9.710;2024-02-28T04:02:12;97662.53;;;6.72;94.81
76052;BME280;64751;48.708;9.710;2024-02-28T04:04:40;97657.50;;;6.71;95.76
76052;BME280;64751;48.708;9.710;2024-02-28T04:07:07;97659.09;;;6.72;95.24
76052;BME280;64751;48.708;9.710;2024-02-28T04:09:34;97663.56;;;6.71;94.31
76052;BME280;64751;48.708;9.710;2024-02-28T04:12:08;97655.13;;;6.69;95.16
76052;BME280;64751;48.708;9.710;2024-02-28T04:14:41;97656.47;;;6.72;94.94
76052;BME280;64751;48.708;9.710;2024-02-28T04:17:08;97655.41;;;6.73;94.81
76052;BME280;64751;48.708;9.710;2024-02-28T04:19:40;97664.59;;;6.70;95.17
76052;BME280;64751;48.708;9.710;2024-02-28T04:22:08;97658.56;;;6.70;95.77
76052;BME280;64751;48.708;9.710;2024-02-28T04:24:40;97659.34;;;6.70;95.41
76052;BME280;64751;48.708;9.710;2024-02-28T04:27:09;97659.63;;;6.74;95.77
76052;BME280;64751;48.708;9.710;2024-02-28T04:29:42;97663.06;;;6.74;95.86
76052;BME280;64751;48.708;9.710;2024-02-28T04:32:15;97661.78;;;6.77;95.11
76052;BME280;64751;48.708;9.710;2024-02-28T04:34:42;97668.59;;;6.78;94.83
76052;BME280;64751;48.708;9.710;2024-02-28T04:37:09;97665.16;;;6.77;94.88
76052;BME280;64751;48.708;9.710;2024-02-28T04:39:42;97671.47;;;6.76;94.53
76052;BME280;64751;48.708;9.710;2024-02-28T04:42:12;97681.50;;;6.79;94.52
76052;BME280;64751;48.708;9.710;2024-02-28T04:44:39;97680.72;;;6.84;94.19
76052;BME280;64751;48.708;9.710;2024-02-28T04:47:12;97682.56;;;6.83;94.22
76052;BME280;64751;48.708;9.710;2024-02-28T04:49:44;97685.19;;;6.83;95.31
76052;BME280;64751;48.708;9.710;2024-02-28T04:52:17;97684.94;;;6.85;95.05
76052;BME280;64751;48.708;9.710;2024-02-28T04:54:44;97696.53;;;6.89;94.35
76052;BME280;64751;48.708;9.710;2024-02-28T04:57:18;97694.16;;;6.87;94.78
76052;BME280;64751;48.708;9.710;2024-02-28T04:59:50;97691.28;;;6.89;94.81
76052;BME280;64751;48.708;9.710;2024-02-28T05:02:18;97690.47;;;6.88;94.30
76052;BME280;64751;48.708;9.710;2024-02-28T05:04:48;97701.78;;;6.89;94.89
76052;BME280;64751;48.708;9.710;2024-02-28T05:07:15;97706.53;;;6.92;94.15
76052;BME280;64751;48.708;9.710;2024-02-28T05:09:48;97705.72;;;6.91;94.52
76052;BME280;64751;48.708;9.710;2024-02-28T05:12:15;97704.44;;;6.94;94.46
76052;BME280;64751;48.708;9.710;2024-02-28T05:14:49;97696.03;;;6.92;93.92
76052;BME280;64751;48.708;9.710;2024-02-28T05:17:21;97712.91;;;7.01;94.19
76052;BME280;64751;48.708;9.710;2024-02-28T05:19:54;97713.47;;;7.03;93.98
76052;BME280;64751;48.708;9.710;2024-02-28T05:22:23;97714.00;;;7.05;93.93
76052;BME280;64751;48.708;9.710;2024-02-28T05:24:55;97717.91;;;7.02;93.47
76052;BME280;64751;48.708;9.710;2024-02-28T05:27:23;97727.13;;;7.05;93.23
76052;BME280;64751;48.708;9.710;2024-02-28T05:29:52;97724.03;;;7.08;93.30
76052;BME280;64751;48.708;9.710;2024-02-28T05:32:19;97729.81;;;7.10;93.94
76052;BME280;64751;48.708;9.710;2024-02-28T05:34:52;97715.63;;;7.11;93.46
76052;BME280;64751;48.708;9.710;2024-02-28T05:37:24;97726.13;;;7.11;93.77
76052;BME280;64751;48.708;9.710;2024-02-28T05:39:57;97720.59;;;7.07;93.42
76052;BME280;64751;48.708;9.710;2024-02-28T05:42:24;97730.28;;;7.07;92.84
76052;BME280;64751;48.708;9.710;2024-02-28T05:44:58;97730.78;;;7.04;93.24
76052;BME280;64751;48.708;9.710;2024-02-28T05:47:31;97745.78;;;7.03;93.36
76052;BME280;64751;48.708;9.710;2024-02-28T05:49:58;97744.16;;;7.02;93.40
76052;BME280;64751;48.708;9.710;2024-02-28T05:52:31;97748.06;;;6.95;93.87
76052;BME280;64751;48.708;9.710;2024-02-28T05:55:04;97756.47;;;6.97;93.77
76052;BME280;64751;48.708;9.710;2024-02-28T05:57:31;97762.81;;;7.01;93.89
76052;BME280;64751;48.708;9.710;2024-02-28T06:00:06;97761.53;;;7.03;93.89
76052;BME280;64751;48.708;9.710;2024-02-28T06:02:42;97772.56;;;7.05;94.03
76052;BME280;64751;48.708;9.710;2024-02-28T06:05:10;97772.31;;;7.07;93.31
76052;BME280;64751;48.708;9.710;2024-02-28T06:07:37;97769.44;;;7.08;93.81
76052;BME280;64751;48.708;9.710;2024-02-28T06:10:10;97770.00;;;7.10;92.84
76052;BME280;64751;48.708;9.710;2024-02-28T06:12:42;97780.25;;;7.12;93.09
76052;BME280;64751;48.708;9.710;2024-02-28T06:15:16;97785.00;;;7.15;93.04
76052;BME280;64751;48.708;9.710;2024-02-28T06:17:44;97791.03;;;7.15;92.84
76052;BME280;64751;48.708;9.710;2024-02-28T06:20:17;97789.47;;;7.14;92.85
76052;BME280;64751;48.708;9.710;2024-02-28T06:22:44;97784.69;;;7.11;93.50
76052;BME280;64751;48.708;9.710;2024-02-28T06:25:12;97795.50;;;7.73;100.00
76052;BME280;64751;48.708;9.710;2024-02-28T06:27:45;97793.75;;;8.26;100.00
76052;BME280;64751;48.708;9.710;2024-02-28T06:30:19;97794.16;;;8.49;94.37
76052;BME280;64751;48.708;9.710;2024-02-28T06:32:47;97798.13;;;8.57;93.17
76052;BME280;64751;48.708;9.710;2024-02-28T06:35:14;97802.06;;;8.49;91.50
76052;BME280;64751;48.708;9.710;2024-02-28T06:37:47;97813.78;;;8.27;89.00
76052;BME280;64751;48.708;9.710;2024-02-28T06:40:21;97814.13;;;8.03;88.93
76052;BME280;64751;48.708;9.710;2024-02-28T06:42:53;97821.09;;;7.88;88.87
76052;BME280;64751;48.708;9.710;2024-02-28T06:45:22;97816.00;;;7.76;89.12
76052;BME280;64751;48.708;9.710;2024-02-28T06:47:50;97826.16;;;7.63;90.25
76052;BME280;64751;48.708;9.710;2024-02-28T06:50:17;97822.38;;;7.49;90.82
76052;BME280;64751;48.708;9.710;2024-02-28T06:52:45;97835.94;;;7.41;90.96
76052;BME280;64751;48.708;9.710;2024-02-28T06:55:17;97827.78;;;7.37;90.77
76052;BME280;64751;48.708;9.710;2024-02-28T06:57:50;97840.09;;;7.37;91.19
76052;BME280;64751;48.708;9.710;2024-02-28T07:00:17;97840.09;;;7.37;91.33
76052;BME280;64751;48.708;9.710;2024-02-28T07:02:51;97847.19;;;7.36;91.49
76052;BME280;64751;48.708;9.710;2024-02-28T07:05:24;97846.66;;;7.34;91.90
76052;BME280;64751;48.708;9.710;2024-02-28T07:07:56;97854.53;;;7.34;91.05
76052;BME280;64751;48.708;9.710;2024-02-28T07:10:29;97857.09;;;7.29;91.40
76052;BME280;64751;48.708;9.710;2024-02-28T07:12:56;97864.44;;;7.27;91.47
76052;BME280;64751;48.708;9.710;2024-02-28T07:15:29;97861.56;;;7.28;90.76
76052;BME280;64751;48.708;9.710;2024-02-28T07:18:02;97866.56;;;7.30;90.75
76052;BME280;64751;48.708;9.710;2024-02-28T07:20:35;97869.75;;;7.32;90.72
76052;BME280;64751;48.708;9.710;2024-02-28T07:23:07;97871.28;;;7.28;91.09
76052;BME280;64751;48.708;9.710;2024-02-28T07:25:40;97869.44;;;7.28;90.32
76052;BME280;64751;48.708;9.710;2024-02-28T07:28:12;97866.03;;;7.28;90.76
76052;BME280;64751;48.708;9.710;2024-02-28T07:30:45;97861.00;;;7.26;90.50
76052;BME280;64751;48.708;9.710;2024-02-28T07:33:20;97870.50;;;7.27;90.56
76052;BME280;64751;48.708;9.710;2024-02-28T07:35:48;97870.75;;;7.26;90.58
76052;BME280;64751;48.708;9.710;2024-02-28T07:38:16;97879.44;;;7.31;90.36
76052;BME280;64751;48.708;9.710;2024-02-28T07:40:47;97876.81;;;7.31;89.28
76052;BME280;64751;48.708;9.710;2024-02-28T07:43:20;97882.63;;;7.33;88.62
76052;BME280;64751;48.708;9.710;2024-02-28T07:45:47;97880.53;;;7.36;89.34
76052;BME280;64751;48.708;9.710;2024-02-28T07:48:21;97880.53;;;7.36;89.46
76052;BME280;64751;48.708;9.710;2024-02-28T07:50:49;97882.13;;;7.37;89.15
76052;BME280;64751;48.708;9.710;2024-02-28T07:53:17;97879.25;;;7.38;88.61
76052;BME280;64751;48.708;9.710;2024-02-28T07:55:49;97884.84;;;7.42;88.46
76052;BME280;64751;48.708;9.710;2024-02-28T07:58:16;97884.31;;;7.45;88.30
76052;BME280;64751;48.708;9.710;2024-02-28T08:00:49;97891.16;;;7.46;88.27
76052;BME280;64751;48.708;9.710;2024-02-28T08:03:18;97890.69;;;7.49;88.53
76052;BME280;64751;48.708;9.710;2024-02-28T08:05:52;97885.72;;;7.52;88.66
76052;BME280;64751;48.708;9.710;2024-02-28T08:08:24;97884.72;;;7.58;89.64
76052;BME280;64751;48.708;9.710;2024-02-28T08:10:57;97887.66;;;7.62;89.14
76052;BME280;64751;48.708;9.710;2024-02-28T08:13:24;97890.22;;;7.57;87.98
76052;BME280;64751;48.708;9.710;2024-02-28T08:15:59;97896.31;;;7.62;88.01
76052;BME280;64751;48.708;9.710;2024-02-28T08:18:26;97896.63;;;7.66;87.35
76052;BME280;64751;48.708;9.710;2024-02-28T08:21:01;97904.25;;;7.67;87.33
76052;BME280;64751;48.708;9.710;2024-02-28T08:23:34;97907.19;;;7.71;87.42
76052;BME280;64751;48.708;9.710;2024-02-28T08:26:01;97909.31;;;7.74;86.82
76052;BME280;64751;48.708;9.710;2024-02-28T08:28:34;97913.03;;;7.78;88.47
76052;BME280;64751;48.708;9.710;2024-02-28T08:31:07;97909.09;;;7.80;87.88
76052;BME280;64751;48.708;9.710;2024-02-28T08:33:41;97911.50;;;7.82;86.86
76052;BME280;64751;48.708;9.710;2024-02-28T08:36:14;97908.63;;;7.83;87.08
76052;BME280;64751;48.708;9.710;2024-02-28T08:38:42;97914.38;;;7.80;87.24
76052;BME280;64751;48.708;9.710;2024-02-28T08:41:10;97915.81;;;7.66;86.57
76052;BME280;64751;48.708;9.710;2024-02-28T08:43:43;97918.13;;;7.63;86.27
76052;BME280;64751;48.708;9.710;2024-02-28T08:46:16;97914.16;;;7.60;87.75
76052;BME280;64751;48.708;9.710;2024-02-28T08:48:43;97920.97;;;7.56;87.18
76052;BME280;64751;48.708;9.710;2024-02-28T08:51:17;97921.28;;;7.60;86.39
76052;BME280;64751;48.708;9.710;2024-02-28T08:53:49;97922.56;;;7.57;87.05
76052;BME280;64751;48.708;9.710;2024-02-28T08:56:23;97923.50;;;7.46;87.61
76052;BME280;64751;48.708;9.710;2024-02-28T08:58:50;97923.72;;;7.45;87.67
76052;BME280;64751;48.708;9.710;2024-02-28T09:01:18;97927.63;;;7.42;87.25
76052;BME280;64751;48.708;9.710;2024-02-28T09:03:45;97923.50;;;7.46;87.64
76052;BME280;64751;48.708;9.710;2024-02-28T09:06:19;97924.88;;;7.54;87.43
76052;BME280;64751;48.708;9.710;2024-02-28T09:08:47;97928.09;;;7.61;87.06
76052;BME280;64751;48.708;9.710;2024-02-28T09:11:19;97924.47;;;7.67;86.50
76052;BME280;64751;48.708;9.710;2024-02-28T09:13:51;97928.78;;;7.73;87.27
76052;BME280;64751;48.708;9.710;2024-02-28T09:16:24;97934.56;;;7.75;87.32
76052;BME280;64751;48.708;9.710;2024-02-28T09:18:58;97937.19;;;7.75;87.77
76052;BME280;64751;48.708;9.710;2024-02-28T09:21:32;97941.13;;;7.72;87.77
76052;BME280;64751;48.708;9.710;2024-02-28T09:24:05;97941.91;;;7.73;86.02
76052;BME280;64751;48.708;9.710;2024-02-28T09:26:32;97941.91;;;7.73;87.06
76052;BME280;64751;48.708;9.710;2024-02-28T09:29:00;97940.13;;;7.78;86.95
76052;BME280;64751;48.708;9.710;2024-02-28T09:31:27;97944.81;;;7.76;86.68
76052;BME280;64751;48.708;9.710;2024-02-28T09:33:59;97944.53;;;7.73;87.49
76052;BME280;64751;48.708;9.710;2024-02-28T09:36:31;97938.78;;;7.76;87.88
76052;BME280;64751;48.708;9.710;2024-02-28T09:39:04;97942.94;;;7.72;87.52
76052;BME280;64751;48.708;9.710;2024-02-28T09:41:36;97943.47;;;7.69;87.11
76052;BME280;64751;48.708;9.710;2024-02-28T09:44:09;97943.13;;;7.65;88.57
76052;BME280;64751;48.708;9.710;2024-02-28T09:46:44;97942.94;;;7.72;88.01
76052;BME280;64751;48.708;9.710;2024-02-28T09:49:13;97946.72;;;7.81;87.12
76052;BME280;64751;48.708;9.710;2024-02-28T09:51:44;97953.31;;;7.83;87.23
76052;BME280;64751;48.708;9.710;2024-02-28T09:54:16;97960.72;;;7.86;86.37
76052;BME280;64751;48.708;9.710;2024-02-28T09:56:43;97955.00;;;7.94;86.26
76052;BME280;64751;48.708;9.710;2024-02-28T09:59:15;97960.06;;;8.01;86.24
76052;BME280;64751;48.708;9.710;2024-02-28T10:01:53;97959.56;;;8.04;84.76
76052;BME280;64751;48.708;9.710;2024-02-28T10:04:27;97956.94;;;8.04;85.70
76052;BME280;64751;48.708;9.710;2024-02-28T10:07:12;97967.94;;;8.01;84.86
76052;BME280;64751;48.708;9.710;2024-02-28T10:09:40;97968.94;;;7.95;84.94
76052;BME280;64751;48.708;9.710;2024-02-28T10:12:12;97971.31;;;7.96;84.91
76052;BME280;64751;48.708;9.710;2024-02-28T10:14:45;97972.13;;;7.97;85.33
76052;BME280;64751;48.708;9.710;2024-02-28T10:17:12;97982.63;;;7.97;86.63
76052;BME280;64751;48.708;9.710;2024-02-28T10:19:44;97988.94;;;7.96;86.67
76052;BME280;64751;48.708;9.710;2024-02-28T10:22:18;97979.16;;;7.91;85.79
76052;BME280;64751;48.708;9.710;2024-02-28T10:24:56;97983.31;;;7.87;86.07
76052;BME280;64751;48.708;9.710;2024-02-28T10:27:32;97992.56;;;7.90;86.13
76052;BME280;64751;48.708;9.710;2024-02-28T10:30:06;97998.91;;;7.94;85.57
76052;BME280;64751;48.708;9.710;2024-02-28T10:32:48;97990.78;;;7.95;85.49
76052;BME280;64751;48.708;9.710;2024-02-28T10:35:20;97990.78;;;7.95;85.98
76052;BME280;64751;48.708;9.710;2024-02-28T10:37:52;97996.31;;;7.99;85.29
76052;BME280;64751;48.708;9.710;2024-02-28T10:40:27;97990.59;;;8.02;85.36
76052;BME280;64751;48.708;9.710;2024-02-28T10:43:00;97991.41;;;8.07;84.81
76052;BME280;64751;48.708;9.710;2024-02-28T10:45:31;97972.19;;;8.02;85.10
76052;BME280;64751;48.708;9.710;2024-02-28T10:47:58;97993.84;;;8.14;85.20
76052;BME280;64751;48.708;9.710;2024-02-28T10:50:26;97993.84;;;8.14;85.37
76052;BME280;64751;48.708;9.710;2024-02-28T10:53:01;97990.44;;;8.14;84.17
76052;BME280;64751;48.708;9.710;2024-02-28T10:55:39;97999.63;;;8.16;83.79
76052;BME280;64751;48.708;9.710;2024-02-28T10:58:14;98006.25;;;8.19;83.67
76052;BME280;64751;48.708;9.710;2024-02-28T11:00:43;98006.56;;;8.22;83.98
76052;BME280;64751;48.708;9.710;2024-02-28T11:03:17;98008.47;;;8.27;84.27
76052;BME280;64751;48.708;9.710;2024-02-28T11:05:45;98012.44;;;8.29;84.14
76052;BME280;64751;48.708;9.710;2024-02-28T11:08:23;98016.22;;;8.38;84.35
76052;BME280;64751;48.708;9.710;2024-02-28T11:10:55;98017.78;;;8.39;82.55
76052;BME280;64751;48.708;9.710;2024-02-28T11:13:23;98016.22;;;8.38;82.56
76052;BME280;64751;48.708;9.710;2024-02-28T11:16:07;98012.03;;;8.42;83.53
76052;BME280;64751;48.708;9.710;2024-02-28T11:18:35;98016.28;;;8.48;83.75
76052;BME280;64751;48.708;9.710;2024-02-28T11:21:02;98013.16;;;8.51;83.60
76052;BME280;64751;48.708;9.710;2024-02-28T11:23:37;98015.00;;;8.51;83.77
76052;BME280;64751;48.708;9.710;2024-02-28T11:26:04;98012.63;;;8.49;83.44
76052;BME280;64751;48.708;9.710;2024-02-28T11:28:36;98015.47;;;8.48;83.90
76052;BME280;64751;48.708;9.710;2024-02-28T11:31:09;98017.31;;;8.47;83.82
76052;BME280;64751;48.708;9.710;2024-02-28T11:33:37;98009.19;;;8.49;82.71
76052;BME280;64751;48.708;9.710;2024-02-28T11:36:11;98008.94;;;8.50;81.40
76052;BME280;64751;48.708;9.710;2024-02-28T11:38:45;98007.84;;;8.46;81.88
76052;BME280;64751;48.708;9.710;2024-02-28T11:41:25;98002.53;;;8.41;82.29
76052;BME280;64751;48.708;9.710;2024-02-28T11:43:58;98012.03;;;8.42;82.75
76052;BME280;64751;48.708;9.710;2024-02-28T11:46:32;98012.53;;;8.39;83.74
76052;BME280;64751;48.708;9.710;2024-02-28T11:49:04;98016.50;;;8.42;83.72
76052;BME280;64751;48.708;9.710;2024-02-28T11:51:39;98021.75;;;8.42;83.96
76052;BME280;64751;48.708;9.710;2024-02-28T11:54:08;98016.22;;;8.38;84.42
76052;BME280;64751;48.708;9.710;2024-02-28T11:56:42;98020.34;;;8.29;84.35
76052;BME280;64751;48.708;9.710;2024-02-28T11:59:15;98024.38;;;8.15;85.25
76052;BME280;64751;48.708;9.710;2024-02-28T12:01:43;98022.53;;;8.16;84.64
76052;BME280;64751;48.708;9.710;2024-02-28T12:04:17;98025.66;;;8.13;85.24
76052;BME280;64751;48.708;9.710;2024-02-28T12:06:45;98022.69;;;8.04;85.93
76052;BME280;64751;48.708;9.710;2024-02-28T12:09:14;98013.25;;;8.08;84.90
76052;BME280;64751;48.708;9.710;2024-02-28T12:11:41;98020.66;;;8.11;84.51
76052;BME280;64751;48.708;9.710;2024-02-28T12:14:09;98014.41;;;8.17;85.63
76052;BME280;64751;48.708;9.710;2024-02-28T12:16:38;98012.31;;;8.19;83.48
76052;BME280;64751;48.708;9.710;2024-02-28T12:19:12;98014.00;;;8.30;84.09
76052;BME280;64751;48.708;9.710;2024-02-28T12:21:46;98017.25;;;8.37;82.31
76052;BME280;64751;48.708;9.710;2024-02-28T12:24:20;98018.31;;;8.41;83.06
76052;BME280;64751;48.708;9.710;2024-02-28T12:26:48;98010.75;;;8.45;82.81
76052;BME280;64751;48.708;9.710;2024-02-28T12:29:20;98010.75;;;8.45;82.43
76052;BME280;64751;48.708;9.710;2024-02-28T12:31:48;98009.69;;;8.46;82.91
76052;BME280;64751;48.708;9.710;2024-02-28T12:34:20;98004.94;;;8.48;81.70
76052;BME280;64751;48.708;9.710;2024-02-28T12:36:48;98004.16;;;8.47;82.83
76052;BME280;64751;48.708;9.710;2024-02-28T12:39:21;97995.22;;;8.48;82.66
76052;BME280;64751;48.708;9.710;2024-02-28T12:41:49;97999.19;;;8.51;81.29
76052;BME280;64751;48.708;9.710;2024-02-28T12:44:16;98001.34;;;8.54;80.67
76052;BME280;64751;48.708;9.710;2024-02-28T12:46:49;97991.56;;;8.49;80.57
76052;BME280;64751;48.708;9.710;2024-02-28T12:49:21;97991.78;;;8.48;80.38
76052;BME280;64751;48.708;9.710;2024-02-28T12:51:54;97992.63;;;8.53;80.18
76052;BME280;64751;48.708;9.710;2024-02-28T12:54:23;97992.91;;;8.57;79.21
76052;BME280;64751;48.708;9.710;2024-02-28T12:56:50;97998.78;;;8.64;79.38
76052;BME280;64751;48.708;9.710;2024-02-28T12:59:22;98000.66;;;8.68;79.56
76052;BME280;64751;48.708;9.710;2024-02-28T13:01:50;97990.91;;;8.69;77.98
76052;BME280;64751;48.708;9.710;2024-02-28T13:04:17;97996.97;;;8.69;79.33
76052;BME280;64751;48.708;9.710;2024-02-28T13:06:44;97996.41;;;8.67;80.38
76052;BME280;64751;48.708;9.710;2024-02-28T13:09:17;97991.41;;;8.66;79.65
76052;BME280;64751;48.708;9.710;2024-02-28T13:11:51;97990.06;;;8.63;79.96
76052;BME280;64751;48.708;9.710;2024-02-28T13:14:18;97987.97;;;8.60;79.30
76052;BME280;64751;48.708;9.710;2024-02-28T13:16:45;97986.84;;;8.56;80.18
76052;BME280;64751;48.708;9.710;2024-02-28T13:19:19;97995.72;;;8.45;80.14
76052;BME280;64751;48.708;9.710;2024-02-28T13:21:52;97995.94;;;8.39;80.22
76052;BME280;64751;48.708;9.710;2024-02-28T13:24:24;97991.47;;;8.39;79.38
76052;BME280;64751;48.708;9.710;2024-02-28T13:26:58;97990.72;;;8.44;79.08
76052;BME280;64751;48.708;9.710;2024-02-28T13:29:25;97984.69;;;8.48;78.56